Terminal Aerodrome Forecast
Issued by NWS

Home | Current Version | Previous Version | Text Only | Print | Product List | Glossary On
Versions: 1 2 3 4 5 6 7 8 9 10 11 12 13 14 15 16
000
FTUS41 KBOX 262320
TAFFMH
TAF
KFMH 262320Z 2700/2724 13006KT 1/4SM -SHRADZ FG OVC003
     FM270600 VRB03KT 1/4SM -DZ FG VCSH OVC003
     FM271300 VRB03KT 1/2SM -DZ FG VCSH OVC003
     FM271400 VRB03KT 3/4SM -DZ BR OVC003
     FM271500 24004KT 1SM BR OVC003=

USA.gov is the U.S. government's official web portal to all federal, state and local government web resources and services.